Ehrhardt, South Carolina
Current Conditions -  °F | °C
As of 1:15 PM on Sunday 25 Jan 2015 (Local Time) from KAQX Reporting Station
Clear Clear  
Wind Chill: 57°   Ceiling: Unl
Heat Index: 57°   Visibility: 10mi
Dew Point: 32°   Wind: 8mph
Humidity: 38%   Direction: 170°S
Pressure: 29.91"   Gusts: NA
Location:  33.1°N, 81.01°W
Report Text: KAQX 251815Z AUTO 17007KT 10SM CLR 14/00 A2991 RMK AO2
Loading
Personal Weather Stations






























Interactive Weather Map New forecast layout! Learn more

10-Day Weather Forecast

Advertisements
Track Severe Weather on mobile